Time;durP1;ratioP1;P1;durP2;ratioP2;P2;SDS_P1;SDS_P2;PMS_P1;PMS_P2;Temp;Humidity;BMP_temperature;BMP_pressure;BME280_temperature;BME280_humidity;BME280_pressure;Samples;Min_cycle;Max_cycle;Signal;HPM_P1;HPM_P2
2022/06/28 00:00:17;;;;;;;9.23;4.13;;;18.30;99.90;;;18.77;73.09;101922.81;5113715;28;20103;-69
2022/06/28 00:02:46;;;;;;;9.18;3.03;;;18.30;99.90;;;18.80;72.70;101925.44;5113719;28;20039;-69
2022/06/28 00:05:14;;;;;;;10.20;3.88;;;18.30;99.90;;;18.84;72.07;101919.09;5113637;28;20035;-69
2022/06/28 00:07:43;;;;;;;9.18;3.13;;;18.40;99.90;;;18.79;71.71;101917.44;5113854;28;20444;-69
2022/06/28 00:10:13;;;;;;;10.27;3.60;;;18.30;99.90;;;18.74;71.42;101920.19;5113500;28;20551;-69
2022/06/28 00:12:42;;;;;;;14.65;4.03;;;18.30;99.90;;;18.70;71.19;101921.16;5095653;28;20051;-69
2022/06/28 00:18:01;;;;;;;7.85;3.17;;;18.30;99.90;;;18.66;70.74;101915.94;5113555;28;20097;-69
2022/06/28 00:20:30;;;;;;;8.63;3.70;;;18.20;99.90;;;18.68;70.47;101908.69;5113518;28;20052;-69
2022/06/28 00:22:58;;;;;;;11.57;3.78;;;18.30;99.90;;;18.63;70.38;101916.88;5113702;28;20040;-69
2022/06/28 00:25:26;;;;;;;10.18;3.40;;;18.20;99.90;;;18.60;70.47;101913.38;5113161;28;20043;-69
2022/06/28 00:27:55;;;;;;;16.27;3.50;;;18.20;99.90;;;18.55;70.57;101917.91;5113728;28;20089;-69
2022/06/28 00:30:23;;;;;;;10.88;4.10;;;18.10;99.90;;;18.44;70.66;101901.19;5113530;28;20075;-69
2022/06/28 00:32:52;;;;;;;9.73;3.45;;;18.10;99.90;;;18.49;70.66;101915.34;5113621;28;20050;-69
2022/06/28 00:35:22;;;;;;;8.85;3.40;;;18.10;99.90;;;18.51;70.49;101906.38;5113597;28;20192;-69
2022/06/28 00:37:50;;;;;;;11.60;3.92;;;18.10;99.90;;;18.54;70.38;101917.03;5113634;28;20042;-69
2022/06/28 00:40:19;;;;;;;12.20;3.72;;;18.10;99.90;;;18.51;70.21;101909.06;5113258;28;20070;-69
2022/06/28 00:42:47;;;;;;;12.18;3.80;;;18.10;99.90;;;18.50;70.07;101920.72;5095290;28;20047;-69
2022/06/28 00:45:16;;;;;;;11.68;3.90;;;18.00;99.90;;;18.51;70.14;101914.44;5095303;28;20070;-69
2022/06/28 00:47:44;;;;;;;8.60;3.92;;;18.10;99.90;;;18.53;69.92;101920.63;5113200;28;20147;-69
2022/06/28 00:50:13;;;;;;;9.68;3.42;;;18.00;99.90;;;18.53;69.79;101920.63;5113399;28;20036;-69
2022/06/28 00:53:03;;;;;;;8.43;3.72;;;18.10;99.90;;;18.53;69.74;101925.09;5113483;28;20069;-69
2022/06/28 00:55:32;;;;;;;10.63;4.00;;;18.10;99.90;;;18.54;69.89;101927.75;5113492;28;20036;-69
2022/06/28 00:58:01;;;;;;;10.23;3.60;;;18.10;99.90;;;18.51;70.10;101918.91;5095144;28;20071;-69
2022/06/28 01:00:31;;;;;;;9.23;3.88;;;18.10;99.90;;;18.50;70.01;101919.81;5113319;28;20052;-69
2022/06/28 01:03:00;;;;;;;10.63;3.63;;;18.10;99.90;;;18.47;70.21;101923.44;5113455;28;20100;-69
2022/06/28 01:05:29;;;;;;;6.65;3.53;;;18.00;99.90;;;18.50;70.12;101926.06;5095119;28;20134;-69
2022/06/28 01:07:58;;;;;;;6.82;3.35;;;18.00;99.90;;;18.47;70.17;101930.59;5095020;28;20093;-69
2022/06/28 01:10:28;;;;;;;7.80;3.58;;;18.10;99.90;;;18.44;70.15;101912.78;5097949;28;20131;-69
2022/06/28 01:12:56;;;;;;;10.27;3.60;;;18.00;99.90;;;18.43;70.13;101932.44;5116764;28;20051;-69
2022/06/28 01:15:25;;;;;;;7.75;3.80;;;18.10;99.90;;;18.42;69.93;101921.72;5098673;28;20076;-69
2022/06/28 01:18:06;;;;;;;7.45;3.58;;;18.00;99.90;;;18.43;70.06;101924.41;5117147;28;20035;-69
2022/06/28 01:20:43;;;;;;;10.13;4.47;;;18.00;99.90;;;18.34;70.34;101916.53;5098463;28;20048;-69
2022/06/28 01:23:24;;;;;;;7.97;3.63;;;18.00;99.90;;;18.37;70.07;101921.81;5098690;28;20071;-69
2022/06/28 01:26:01;;;;;;;8.20;3.40;;;18.00;99.90;;;18.35;70.08;101926.31;5098424;28;20079;-69
2022/06/28 01:28:37;;;;;;;11.45;3.60;;;18.00;99.90;;;18.26;70.23;101926.50;5098316;28;20108;-69
2022/06/28 01:31:37;;;;;;;;;;;17.90;99.90;;;18.26;70.42;101926.50;5071543;28;20458;-69
2022/06/28 01:34:06;;;;;;;6.00;3.60;;;17.90;99.90;;;18.30;70.44;101932.69;5098713;28;19923;-69
2022/06/28 01:36:35;;;;;;;10.60;4.03;;;17.90;99.90;;;18.28;70.51;101929.16;5098463;28;20044;-69
2022/06/28 01:39:06;;;;;;;8.77;3.92;;;17.90;99.90;;;18.32;70.35;101931.75;5098465;28;20047;-69
2022/06/28 01:41:36;;;;;;;10.63;3.83;;;17.90;99.90;;;18.30;70.40;101928.22;5116724;28;20048;-69
2022/06/28 01:44:17;;;;;;;8.55;3.92;;;17.90;99.90;;;18.32;70.40;101928.19;5098347;28;20400;-69
2022/06/28 01:47:14;;;;;;;12.45;3.80;;;17.90;99.90;;;18.28;70.12;101935.41;5098756;28;20083;-69
2022/06/28 01:50:02;;;;;;;10.98;3.88;;;17.90;99.90;;;18.22;70.06;101926.56;5116445;28;20438;-68
2022/06/28 01:52:44;;;;;;;8.23;3.63;;;17.90;99.90;;;18.23;70.14;101936.41;5097825;28;20101;-70
2022/06/28 01:55:32;;;;;;;12.40;4.22;;;17.80;99.90;;;18.13;70.46;101934.78;5116065;28;20519;-69
2022/06/28 01:58:04;;;;;;;11.95;3.65;;;17.80;99.90;;;18.09;70.62;101931.28;5097913;28;20044;-69
2022/06/28 02:00:37;;;;;;;11.63;3.53;;;17.70;99.90;;;18.14;70.91;101940.13;5098081;28;20409;-69
2022/06/28 02:03:07;;;;;;;9.73;3.75;;;17.80;99.90;;;18.16;70.86;101940.97;5097849;28;20508;-69
2022/06/28 02:05:56;;;;;;;19.63;4.05;;;17.80;99.90;;;17.44;70.77;101816.47;5115245;28;20458;-69
2022/06/28 02:08:24;;;;;;;8.98;4.18;;;17.80;99.90;;;18.16;70.99;101946.34;5097491;28;20047;-69
2022/06/28 02:11:00;;;;;;;9.35;3.70;;;17.80;99.90;;;18.11;71.09;101942.88;5097682;28;20047;-68
2022/06/28 02:13:38;;;;;;;9.65;3.90;;;17.70;99.90;;;18.00;70.96;101926.13;5116092;28;20063;-68
2022/06/28 02:16:06;;;;;;;11.05;3.95;;;17.80;99.90;;;18.05;71.00;101945.66;5097632;28;20046;-69
2022/06/28 02:18:35;;;;;;;12.27;3.85;;;17.70;99.90;;;18.00;71.31;101935.00;5115922;28;20035;-69
2022/06/28 02:21:06;;;;;;;10.85;4.28;;;17.70;99.90;;;18.06;71.38;101943.88;5097229;28;20051;-69
2022/06/28 02:23:35;;;;;;;13.60;4.80;;;17.70;99.90;;;18.12;71.20;101949.97;5097520;28;20485;-69
2022/06/28 02:26:05;;;;;;;9.20;3.80;;;17.70;99.90;;;18.12;71.22;101949.13;5097286;28;20091;-69
2022/06/28 02:28:33;;;;;;;12.25;4.07;;;17.70;99.90;;;18.07;71.17;101940.25;5097311;28;20054;-69
2022/06/28 02:31:02;;;;;;;11.68;4.03;;;17.70;99.90;;;18.11;71.20;101944.66;5097244;28;20051;-70
2022/06/28 02:33:30;;;;;;;6.93;3.58;;;17.70;99.90;;;18.18;71.30;101946.28;5096145;28;20450;-63
2022/06/28 02:41:32;;;;;;;11.20;4.13;;;17.70;99.90;;;18.07;71.39;101957.22;5097168;28;20051;-62
2022/06/28 02:44:00;;;;;;;10.68;4.10;;;17.70;99.90;;;18.03;71.54;101945.69;5096992;28;20708;-62
2022/06/28 02:46:29;;;;;;;9.10;3.58;;;17.70;99.90;;;17.98;71.13;101952.91;5115207;28;20130;-62
2022/06/28 02:48:57;;;;;;;11.77;4.32;;;17.70;99.90;;;18.03;71.43;101955.50;5115205;28;20394;-62
2022/06/28 02:51:26;;;;;;;11.15;4.20;;;17.70;99.90;;;18.01;71.59;101962.69;5114981;28;20043;-62
2022/06/28 02:53:54;;;;;;;10.15;3.90;;;17.60;99.90;;;17.92;71.93;101963.72;5115107;28;20051;-63
2022/06/28 02:56:24;;;;;;;10.88;4.28;;;17.50;99.90;;;17.91;72.17;101966.41;5096781;28;20044;-62
2022/06/28 02:58:53;;;;;;;15.75;4.40;;;17.50;99.90;;;17.83;72.30;101958.53;5097031;28;20047;-63
2022/06/28 03:01:22;;;;;;;17.57;4.53;;;17.50;99.90;;;17.82;72.43;101967.47;5115017;28;20047;-62
2022/06/28 03:03:50;;;;;;;10.48;4.15;;;17.50;99.90;;;17.66;72.71;101951.69;5114925;28;20042;-62
2022/06/28 03:06:19;;;;;;;18.02;4.35;;;17.40;99.90;;;17.75;72.90;101968.47;5114853;28;20056;-62
2022/06/28 03:08:47;;;;;;;21.50;4.88;;;17.40;99.90;;;17.60;73.11;101941.97;5114870;28;20118;-62
2022/06/28 03:11:15;;;;;;;14.20;5.07;;;17.30;99.90;;;17.70;73.19;101974.81;5114572;28;20405;-62
2022/06/28 03:13:44;;;;;;;13.45;4.00;;;17.30;99.90;;;17.64;73.58;101967.75;5096410;28;20062;-62
2022/06/28 03:16:13;;;;;;;10.38;4.13;;;17.30;99.90;;;17.65;73.63;101974.88;5096418;28;20096;-62
2022/06/28 03:18:42;;;;;;;13.40;4.28;;;17.20;99.90;;;17.63;74.05;101971.38;5096420;28;20047;-63
2022/06/28 03:21:10;;;;;;;12.55;4.60;;;17.20;99.90;;;17.37;74.48;101941.41;5096277;28;20074;-63
2022/06/28 03:23:39;;;;;;;11.48;4.25;;;17.20;99.90;;;17.60;74.42;101981.19;5114448;28;20507;-62
2022/06/28 03:26:07;;;;;;;14.80;5.03;;;17.20;99.90;;;17.54;74.30;101981.28;5114556;28;20127;-62
2022/06/28 03:28:35;;;;;;;21.00;4.78;;;17.10;99.90;;;17.52;74.44;101983.09;5114482;28;20118;-62
2022/06/28 03:31:04;;;;;;;14.85;4.75;;;17.10;99.90;;;17.55;74.69;101993.78;5095973;28;20043;-62
2022/06/28 03:33:34;;;;;;;11.93;4.65;;;17.10;99.90;;;17.54;74.61;101990.22;5095460;28;20051;-62
2022/06/28 03:36:02;;;;;;;25.05;5.57;;;17.10;99.90;;;17.55;74.66;101999.13;5096027;28;20454;-62
2022/06/28 03:38:36;;;;;;;12.73;4.13;;;17.10;99.90;;;17.53;74.94;101996.50;5096086;28;20093;-63
2022/06/28 03:41:22;;;;;;;18.38;5.03;;;17.10;99.90;;;17.43;74.93;101984.09;5095984;28;20048;-62
2022/06/28 03:43:55;;;;;;;13.68;4.82;;;17.10;99.90;;;17.52;75.23;101999.16;5095936;28;20051;-62
2022/06/28 03:46:25;;;;;;;13.63;4.75;;;17.10;99.90;;;17.53;75.29;102006.28;5095893;28;20404;-62
2022/06/28 03:49:06;;;;;;;16.85;5.10;;;17.10;99.90;;;17.54;75.34;102008.06;5095975;28;20049;-62
2022/06/28 03:51:54;;;;;;;15.70;5.47;;;17.10;99.90;;;17.56;75.21;102000.88;5095781;28;20044;-62
2022/06/28 03:54:42;;;;;;;13.07;5.03;;;17.20;99.90;;;17.43;75.56;101994.81;5099486;28;20048;-63
2022/06/28 03:57:34;;;;;;;19.77;5.30;;;17.20;99.90;;;17.47;75.82;102001.88;5102839;28;20059;-62
2022/06/28 04:00:03;;;;;;;17.95;5.25;;;17.10;99.90;;;17.44;75.78;102006.41;5095680;28;20084;-62
2022/06/28 04:02:40;;;;;;;17.20;5.75;;;17.10;99.90;;;17.43;76.32;102020.66;5113639;28;20052;-62
2022/06/28 04:05:16;;;;;;;15.27;5.38;;;17.00;99.90;;;17.42;76.47;102008.22;5095594;28;20043;-62
2022/06/28 04:07:45;;;;;;;14.27;5.57;;;17.00;99.90;;;17.42;76.50;102022.44;5095537;28;20043;-64
2022/06/28 04:10:13;;;;;;;22.60;6.28;;;17.00;99.90;;;17.30;76.43;101993.22;5095502;28;20541;-63
2022/06/28 04:12:46;;;;;;;17.27;5.07;;;17.00;99.90;;;17.41;76.55;102017.13;5095328;28;20117;-61
2022/06/28 04:15:20;;;;;;;23.58;6.18;;;17.00;99.90;;;17.38;76.84;102011.84;5095468;28;20044;-62
2022/06/28 04:17:59;;;;;;;18.67;5.82;;;17.00;99.90;;;17.37;77.24;102018.97;5095401;28;20040;-63
2022/06/28 04:20:52;;;;;;;16.90;5.75;;;17.00;99.90;;;17.30;77.39;102011.94;5112312;28;20392;-62
2022/06/28 04:23:20;;;;;;;18.48;5.95;;;17.00;99.90;;;17.47;77.62;102023.28;5095350;28;20044;-62
2022/06/28 04:25:49;;;;;;;17.20;5.43;;;17.10;99.90;;;17.51;77.92;102022.38;5095168;28;20051;-62
2022/06/28 04:28:26;;;;;;;16.95;5.53;;;17.10;99.90;;;17.49;78.44;102023.28;5095359;28;20048;-63
2022/06/28 04:31:18;;;;;;;18.98;6.20;;;17.10;99.90;;;17.47;78.99;102027.75;5090464;28;20055;-63
2022/06/28 04:33:47;;;;;;;21.25;5.85;;;17.10;99.90;;;17.45;79.35;102024.22;5094931;28;20097;-63
2022/06/28 04:36:19;;;;;;;21.13;6.50;;;17.10;99.90;;;17.38;79.52;102001.13;5095356;28;20067;-62
2022/06/28 04:38:49;;;;;;;20.75;6.15;;;17.10;99.90;;;17.41;79.96;102028.72;5095217;28;20043;-63
2022/06/28 04:41:24;;;;;;;17.17;5.93;;;17.10;99.90;;;17.42;80.34;102025.13;5095218;28;20047;-62
2022/06/28 04:44:11;;;;;;;17.07;6.53;;;17.10;99.90;;;17.48;80.73;102018.84;5115906;28;20163;-63
2022/06/28 04:46:46;;;;;;;19.05;6.28;;;17.10;99.90;;;17.52;80.59;102026.81;5099282;28;20782;-63
2022/06/28 04:49:18;;;;;;;24.83;6.88;;;17.10;99.90;;;17.57;80.75;102022.28;5099305;28;20055;-62
2022/06/28 04:51:52;;;;;;;22.67;6.28;;;17.20;99.90;;;17.66;80.74;102027.50;5099080;28;20044;-63
2022/06/28 04:54:26;;;;;;;22.73;6.78;;;17.30;99.90;;;17.67;80.75;102026.56;5099164;28;20039;-62
2022/06/28 04:57:30;;;;;;;19.85;6.97;;;17.30;99.90;;;17.61;80.76;102005.28;5112482;28;20059;-63
2022/06/28 05:00:11;;;;;;;20.48;6.38;;;17.40;99.90;;;17.79;80.78;102025.50;5099116;28;20047;-63
2022/06/28 05:02:47;;;;;;;25.10;6.93;;;17.40;99.90;;;17.71;80.58;102003.34;5099077;28;20134;-63
2022/06/28 05:05:36;;;;;;;22.23;6.47;;;17.50;99.90;;;17.88;80.61;102031.63;5116504;28;20044;-62
2022/06/28 05:08:06;;;;;;;21.92;6.63;;;17.50;99.90;;;17.88;80.50;102031.63;5098932;28;20561;-62
2022/06/28 05:10:50;;;;;;;24.25;6.93;;;17.50;99.90;;;17.86;80.60;102025.41;5098742;28;20404;-62
2022/06/28 05:13:30;;;;;;;23.20;7.27;;;17.50;99.90;;;17.90;80.77;102024.44;5098176;28;20071;-63
2022/06/28 05:16:01;;;;;;;24.48;7.05;;;17.50;99.90;;;17.78;81.07;102010.38;5098657;28;20404;-62
2022/06/28 05:18:29;;;;;;;25.30;7.72;;;17.60;99.90;;;17.93;81.18;102024.41;5098586;28;20054;-63
2022/06/28 05:21:01;;;;;;;26.85;8.43;;;17.60;99.90;;;17.98;81.15;102029.69;5098564;28;20493;-63
2022/06/28 05:23:30;;;;;;;20.02;7.43;;;17.60;99.90;;;18.03;81.11;102023.34;5116552;28;20051;-63
2022/06/28 05:26:26;;;;;;;18.45;6.82;;;17.70;99.90;;;18.10;80.85;102026.78;5098532;28;20438;-63
2022/06/28 05:29:11;;;;;;;18.55;7.10;;;17.80;99.90;;;18.14;80.18;102024.97;5098588;28;20491;-63
2022/06/28 05:31:40;;;;;;;28.60;7.53;;;17.80;99.90;;;18.27;80.33;102034.53;5098253;28;20048;-63
2022/06/28 05:34:09;;;;;;;22.30;7.30;;;17.90;99.90;;;18.25;79.97;102034.59;5098316;28;20050;-63
2022/06/28 05:36:38;;;;;;;25.80;7.18;;;17.90;99.90;;;18.24;79.86;102038.16;5116559;28;20040;-62
2022/06/28 05:39:09;;;;;;;;;;;17.90;99.90;;;18.24;79.59;102007.78;5098764;28;20040;-62
2022/06/28 05:41:38;;;;;;;22.60;7.05;;;18.00;99.90;;;18.36;79.54;102037.94;5116466;28;19956;-62
2022/06/28 05:44:06;;;;;;;28.90;7.80;;;18.10;99.90;;;18.36;79.40;102027.22;5098033;28;20374;-63
2022/06/28 05:46:35;;;;;;;21.95;6.80;;;18.10;99.90;;;18.47;79.50;102017.22;5098022;28;20050;-63
2022/06/28 05:49:03;;;;;;;24.05;6.55;;;18.20;99.90;;;18.59;79.13;102030.41;5116408;28;20126;-63
2022/06/28 05:51:31;;;;;;;20.58;6.90;;;18.20;99.90;;;18.61;79.54;102031.25;5098039;28;20538;-63
2022/06/28 05:54:01;;;;;;;27.52;7.78;;;18.30;99.90;;;18.67;79.15;102024.91;5097943;28;20071;-59
2022/06/28 05:56:32;;;;;;;31.45;8.32;;;18.30;99.90;;;18.73;78.62;102025.69;5115423;28;20382;-59
2022/06/28 05:59:00;;;;;;;26.65;7.57;;;18.40;99.90;;;18.79;78.70;102028.22;5097941;28;20047;-60
2022/06/28 06:01:28;;;;;;;21.27;7.53;;;18.50;99.90;;;18.79;78.29;102025.53;5097847;28;20035;-60
2022/06/28 06:03:58;;;;;;;17.90;6.95;;;18.50;99.90;;;18.78;78.21;102023.78;5097700;28;20389;-60
2022/06/28 06:06:27;;;;;;;22.23;7.63;;;18.50;99.90;;;18.83;78.39;102027.22;5097725;28;20616;-60
2022/06/28 06:08:55;;;;;;;27.52;8.25;;;18.50;99.90;;;18.93;78.51;102026.16;5097671;28;20049;-59
2022/06/28 06:11:24;;;;;;;23.05;7.25;;;18.60;99.90;;;19.01;78.04;102023.31;5097503;28;20078;-60
2022/06/28 06:13:54;;;;;;;18.40;7.30;;;18.70;99.90;;;18.84;77.26;101996.84;5097478;28;20472;-61
2022/06/28 06:16:23;;;;;;;25.40;7.38;;;18.60;99.90;;;18.99;77.34;102008.19;5097616;28;20096;-61
2022/06/28 06:18:51;;;;;;;27.70;8.35;;;18.70;99.90;;;18.91;77.51;102001.16;5097510;28;20115;-61
2022/06/28 06:21:19;;;;;;;27.63;7.60;;;18.70;99.90;;;19.21;77.32;102029.16;5115695;28;20042;-61
2022/06/28 06:23:48;;;;;;;23.92;6.55;;;18.80;99.90;;;19.14;77.24;102010.53;5097450;28;20446;-60
2022/06/28 06:26:31;;;;;;;28.33;7.38;;;18.90;99.90;;;19.42;77.36;102028.72;5097467;28;20051;-60
2022/06/28 06:29:01;;;;;;;24.08;6.72;;;19.10;99.90;;;19.44;76.21;102036.72;5115523;28;20079;-60
2022/06/28 06:31:31;;;;;;;28.20;6.82;;;19.10;99.90;;;19.50;76.40;102033.91;5097264;28;20392;-60
2022/06/28 06:34:18;;;;;;;20.58;6.72;;;19.20;99.90;;;19.60;75.42;102041.72;5115298;28;20134;-60
2022/06/28 06:36:50;;;;;;;24.35;6.95;;;19.20;99.90;;;19.61;75.07;102034.53;5096979;28;20100;-59
2022/06/28 06:39:19;;;;;;;23.40;6.78;;;19.20;99.90;;;19.71;74.85;102030.72;5097215;28;20085;-61
2022/06/28 06:41:48;;;;;;;28.70;7.50;;;19.30;99.90;;;19.75;74.97;102035.09;5097023;28;20051;-60
2022/06/28 06:44:17;;;;;;;23.10;6.07;;;19.40;99.90;;;19.85;74.82;102033.97;5115010;28;20503;-60
2022/06/28 06:46:46;;;;;;;18.50;6.10;;;19.50;99.90;;;19.90;74.65;102045.47;5115227;28;20100;-60
2022/06/28 06:49:14;;;;;;;25.17;6.47;;;19.50;99.90;;;19.99;73.43;102047.06;5096720;28;20048;-60
2022/06/28 06:51:44;;;;;;;22.23;6.50;;;19.60;99.90;;;19.79;73.42;101999.22;5096860;28;20506;-60
2022/06/28 06:54:13;;;;;;;21.63;7.43;;;19.60;99.90;;;19.91;73.67;102023.09;5096806;28;20055;-60
2022/06/28 06:56:42;;;;;;;24.00;7.28;;;19.70;99.90;;;20.14;73.64;102049.38;5096794;28;20039;-60
2022/06/28 06:59:12;;;;;;;24.40;6.80;;;19.80;99.90;;;20.12;73.30;102054.78;5096835;28;20044;-60
2022/06/28 07:01:42;;;;;;;20.50;6.68;;;19.80;99.90;;;20.09;72.63;102043.25;5096818;28;20492;-60
2022/06/28 07:04:18;;;;;;;25.13;7.30;;;19.80;99.90;;;20.19;73.29;102048.38;5096764;28;20138;-60
2022/06/28 07:06:46;;;;;;;20.80;6.70;;;19.80;99.90;;;20.17;72.91;102042.13;5113946;28;20058;-60
2022/06/28 07:09:15;;;;;;;21.25;6.97;;;19.80;99.90;;;20.10;72.41;102050.38;5114570;28;20044;-60
2022/06/28 07:11:43;;;;;;;26.52;7.65;;;19.80;99.90;;;20.18;72.39;102051.06;5114683;28;20043;-60
2022/06/28 07:14:12;;;;;;;17.27;6.47;;;19.80;99.90;;;20.17;72.74;102050.19;5096454;28;20505;-60
2022/06/28 07:16:42;;;;;;;24.08;7.47;;;19.80;99.90;;;20.11;73.06;102044.09;5096423;28;20092;-61
2022/06/28 07:19:11;;;;;;;20.10;6.75;;;19.80;99.90;;;20.16;72.01;102048.44;5114267;28;20455;-60
2022/06/28 07:21:40;;;;;;;19.15;7.75;;;19.80;99.90;;;20.00;73.00;102047.03;5114283;28;20388;-60
2022/06/28 07:24:09;;;;;;;20.65;7.28;;;19.80;99.90;;;20.10;72.04;102053.94;5114233;28;20088;-60
2022/06/28 07:26:38;;;;;;;23.27;6.97;;;19.80;99.90;;;20.11;72.62;102057.53;5096229;28;20094;-60
2022/06/28 07:29:06;;;;;;;18.52;6.75;;;19.80;99.90;;;20.18;72.21;102054.69;5096228;28;20048;-60
2022/06/28 07:31:44;;;;;;;25.15;7.60;;;19.80;99.90;;;20.26;72.33;102050.00;5096215;28;20450;-60
2022/06/28 07:34:13;;;;;;;20.27;7.50;;;19.90;99.90;;;20.05;71.25;102001.25;5096106;28;20464;-60
2022/06/28 07:36:42;;;;;;;22.95;6.28;;;20.00;99.90;;;20.35;70.79;102059.63;5096025;28;20039;-60
2022/06/28 07:39:10;;;;;;;23.73;7.00;;;20.00;99.90;;;20.40;70.33;102058.56;5095977;28;20070;-60
2022/06/28 07:41:58;;;;;;;19.00;6.07;;;20.10;99.90;;;20.43;68.88;102053.13;5113984;28;20140;-60
2022/06/28 07:44:45;;;;;;;22.35;6.82;;;20.10;99.90;;;20.43;68.58;102060.31;5113994;28;20089;-60
2022/06/28 07:47:15;;;;;;;19.08;6.22;;;20.10;99.90;;;20.37;69.26;102029.09;5095879;28;20048;-60
2022/06/28 07:52:37;;;;;;;19.10;5.80;;;20.20;99.90;;;20.57;69.06;102059.03;5095726;28;20063;-60
2022/06/28 07:55:12;;;;;;;20.00;6.03;;;20.30;99.90;;;20.61;68.33;102047.25;5095604;28;20465;-60
2022/06/28 07:57:50;;;;;;;18.17;6.20;;;20.30;99.90;;;20.30;67.75;101983.63;5095778;28;20075;-60
2022/06/28 08:00:21;;;;;;;18.08;6.18;;;20.40;99.90;;;20.69;66.97;102047.94;5095662;28;20386;-60
2022/06/28 08:03:04;;;;;;;17.10;5.28;;;20.40;99.90;;;20.69;67.73;102055.13;5095751;28;20055;-60
2022/06/28 08:05:33;;;;;;;20.08;6.47;;;20.40;99.90;;;20.78;68.48;102046.81;5095526;28;20047;-59
2022/06/28 08:08:01;;;;;;;16.65;6.10;;;20.50;99.90;;;20.83;67.76;102049.38;5095481;28;20530;-60
2022/06/28 08:10:32;;;;;;;22.35;6.57;;;20.50;99.90;;;20.88;67.70;102050.13;5095610;28;20058;-60
2022/06/28 08:13:03;;;;;;;17.73;5.80;;;20.60;99.90;;;20.97;67.28;102037.28;5095492;28;20122;-60
2022/06/28 08:15:32;;;;;;;17.35;5.22;;;20.70;99.90;;;21.06;66.57;102044.25;5095417;28;20153;-60
2022/06/28 08:18:02;;;;;;;18.00;6.00;;;20.80;99.90;;;21.15;66.16;102046.69;5113374;28;20424;-60
2022/06/28 08:20:31;;;;;;;14.87;5.07;;;20.80;99.90;;;21.11;65.73;102047.69;5113755;28;20557;-60
2022/06/28 08:23:01;;;;;;;20.05;5.85;;;20.80;99.90;;;20.97;65.79;102018.47;5095137;28;20040;-60
2022/06/28 08:25:30;;;;;;;17.70;5.75;;;20.80;99.90;;;21.20;65.68;102050.09;5095109;28;20056;-60
2022/06/28 08:27:58;;;;;;;19.10;6.63;;;20.90;99.90;;;21.25;65.55;102049.03;5095310;28;20556;-60
2022/06/28 08:30:27;;;;;;;15.77;5.45;;;21.00;99.90;;;21.31;63.20;102042.63;5095228;28;20044;-60
2022/06/28 08:32:57;;;;;;;21.10;6.00;;;21.00;99.90;;;21.38;62.87;102047.78;5095233;28;20040;-60
2022/06/28 08:35:27;;;;;;;18.17;5.80;;;21.00;99.90;;;21.33;63.39;102046.16;5095225;28;20047;-60
2022/06/28 08:37:55;;;;;;;17.58;5.88;;;21.00;99.90;;;21.38;62.99;102045.06;5113226;28;20043;-60
2022/06/28 08:40:25;;;;;;;18.38;5.95;;;21.00;99.90;;;21.35;62.96;102038.91;5113472;28;20405;-62
2022/06/28 08:42:55;;;;;;;17.13;5.22;;;21.00;99.90;;;21.38;62.57;102038.81;5113268;28;20051;-60
2022/06/28 08:45:25;;;;;;;19.23;5.65;;;21.00;99.90;;;21.47;62.04;102036.72;5113234;28;20055;-61
2022/06/28 08:47:56;;;;;;;17.02;5.28;;;21.10;99.90;;;21.47;62.69;102033.13;5113441;28;20086;-60
2022/06/28 08:50:33;;;;;;;17.15;5.38;;;21.10;99.90;;;21.58;61.84;102025.63;5113436;28;20409;-60
2022/06/28 08:53:05;;;;;;;16.85;6.38;;;21.20;99.90;;;21.53;61.07;102023.06;5113517;28;20065;-60
2022/06/28 08:55:36;;;;;;;18.35;5.72;;;21.20;99.90;;;21.64;60.02;102032.63;5113105;28;20059;-61
2022/06/28 08:58:10;;;;;;;16.88;6.03;;;21.30;99.90;;;21.60;59.69;102022.88;5113087;28;20052;-66
2022/06/28 09:00:38;;;;;;;14.68;5.18;;;21.30;99.90;;;21.45;58.04;102024.22;5113265;28;20469;-62
2022/06/28 09:03:07;;;;;;;18.30;5.68;;;21.20;99.90;;;21.49;58.58;102012.41;5112768;28;20067;-61
2022/06/28 09:05:37;;;;;;;12.95;4.95;;;21.20;99.90;;;21.55;56.98;102023.00;5112793;28;20100;-60
2022/06/28 09:08:06;;;;;;;15.00;5.03;;;21.20;99.90;;;21.41;56.71;102023.44;5112982;28;20036;-60
2022/06/28 09:10:34;;;;;;;13.05;4.80;;;21.20;99.90;;;21.34;57.59;102027.25;5112881;28;20086;-60
2022/06/28 09:13:19;;;;;;;20.70;5.65;;;21.10;99.90;;;21.38;57.08;102022.66;5113284;28;20092;-60
2022/06/28 09:15:52;;;;;;;16.15;4.95;;;21.00;99.90;;;21.54;57.48;102021.25;5112760;28;20499;-60
2022/06/28 09:18:24;;;;;;;14.65;4.82;;;21.20;99.90;;;21.69;56.59;102015.38;5112654;28;20035;-60
2022/06/28 09:20:57;;;;;;;13.50;4.90;;;21.40;99.90;;;21.72;54.78;102022.50;5094535;28;20048;-60
2022/06/28 09:23:29;;;;;;;14.63;4.35;;;21.40;99.90;;;21.81;55.03;102028.50;5113079;28;20067;-60
2022/06/28 09:26:06;;;;;;;12.02;4.28;;;21.50;99.90;;;22.02;55.56;102021.50;5113095;28;20116;-60
2022/06/28 09:28:39;;;;;;;14.05;4.88;;;21.70;99.90;;;22.10;54.99;102012.25;5112735;28;20039;-60
2022/06/28 09:31:20;;;;;;;11.55;4.70;;;21.80;99.90;;;22.01;54.39;102001.75;5114905;28;20051;-60
2022/06/28 09:34:04;;;;;;;7.47;4.10;;;21.80;99.90;;;22.37;53.38;102016.69;5116628;28;20040;-60
2022/06/28 09:36:36;;;;;;;11.70;5.30;;;22.00;99.90;;;22.42;53.81;102014.72;5116360;28;20489;-61
2022/06/28 09:39:13;;;;;;;7.95;4.10;;;22.20;99.90;;;22.52;53.25;102014.38;5116315;28;20500;-60
2022/06/28 09:41:46;;;;;;;17.67;5.35;;;22.20;99.90;;;22.52;51.28;102014.38;5116308;28;20063;-60
2022/06/28 09:44:37;;;;;;;11.70;4.22;;;22.20;99.90;;;22.51;50.94;101989.25;5116375;28;20392;-60
2022/06/28 09:47:07;;;;;;;9.65;4.07;;;22.30;99.90;;;22.51;50.67;101989.25;5116416;28;20047;-60
2022/06/28 09:49:42;;;;;;;10.15;4.22;;;22.30;99.90;;;22.68;48.90;102011.13;5116260;28;20040;-60
2022/06/28 09:52:12;;;;;;;9.15;3.70;;;22.30;99.90;;;22.63;49.39;102012.25;5115692;28;20050;-60
2022/06/28 09:54:43;;;;;;;9.63;4.20;;;22.30;99.90;;;22.57;50.36;101982.78;5115817;28;20040;-60
2022/06/28 09:57:14;;;;;;;10.85;4.72;;;22.40;99.90;;;22.82;48.43;102018.72;5116099;28;20044;-60
2022/06/28 09:59:42;;;;;;;11.18;4.22;;;22.40;99.90;;;22.79;49.22;102018.81;5115772;28;20035;-60
2022/06/28 10:02:17;;;;;;;10.80;4.25;;;22.50;99.90;;;22.62;48.45;101991.56;5115677;28;20374;-60
2022/06/28 10:04:47;;;;;;;11.98;5.05;;;22.40;99.90;;;22.88;50.34;102005.88;5115686;28;20104;-60
2022/06/28 10:07:18;;;;;;;11.02;3.40;;;22.50;99.90;;;22.60;49.15;101998.84;5115492;28;20080;-60
2022/06/28 10:09:47;;;;;;;13.23;4.55;;;22.40;99.90;;;22.65;47.63;101996.88;5115833;28;20047;-60
2022/06/28 10:15:05;;;;;;;9.23;4.00;;;22.30;99.90;;;22.73;47.48;102001.03;5115473;28;20052;-61
2022/06/28 10:17:51;;;;;;;11.13;4.50;;;22.40;99.90;;;22.78;47.48;102003.56;5115468;28;20036;-60
2022/06/28 10:20:23;;;;;;;8.52;3.67;;;22.40;99.90;;;22.85;47.37;101999.72;5115155;28;20047;-60
2022/06/28 10:22:54;;;;;;;8.93;3.45;;;22.50;99.90;;;22.85;45.22;101988.91;5115500;28;20098;-60
2022/06/28 10:25:26;;;;;;;60.03;5.82;;;22.60;99.90;;;23.05;47.43;102000.72;5115545;28;20059;-60
2022/06/28 10:27:56;;;;;;;10.32;3.25;;;22.70;99.90;;;23.10;46.83;101996.03;5097026;28;20558;-60
2022/06/28 10:30:28;;;;;;;11.70;3.53;;;22.80;99.90;;;23.20;47.73;101983.06;5115241;28;20078;-60
2022/06/28 10:33:04;;;;;;;9.80;3.90;;;22.90;99.90;;;23.29;48.08;101991.69;5115447;28;20077;-60
2022/06/28 10:36:13;;;;;;;7.55;3.70;;;23.00;99.90;;;22.94;45.12;101958.88;5115322;28;20036;-60
2022/06/28 10:39:29;;;;;;;33.72;4.47;;;22.90;99.90;;;23.23;46.01;101986.53;5114971;28;20426;-60
2022/06/28 10:42:12;;;;;;;13.93;3.80;;;22.90;99.90;;;23.06;46.52;101964.69;5052099;28;20056;-60
2022/06/28 10:44:47;;;;;;;8.10;3.70;;;22.80;99.90;;;22.59;45.01;101940.44;5108312;28;20117;-60